sensor_id;sensor_type;location;lat;lon;timestamp;P1;durP1;ratioP1;P2;durP2;ratioP2
31537;SDS011;18147;51.952;6.146;2022-12-07T00:00:27;48.53;;;23.85;;
31537;SDS011;18147;51.952;6.146;2022-12-07T00:02:52;53.15;;;23.30;;
31537;SDS011;18147;51.952;6.146;2022-12-07T00:05:17;48.03;;;22.52;;
31537;SDS011;18147;51.952;6.146;2022-12-07T00:07:43;45.25;;;20.67;;
31537;SDS011;18147;51.952;6.146;2022-12-07T00:10:08;38.63;;;19.85;;
31537;SDS011;18147;51.952;6.146;2022-12-07T00:12:34;41.60;;;18.08;;
31537;SDS011;18147;51.952;6.146;2022-12-07T00:14:59;34.67;;;18.58;;
31537;SDS011;18147;51.952;6.146;2022-12-07T00:17:25;41.30;;;16.80;;
31537;SDS011;18147;51.952;6.146;2022-12-07T00:19:51;43.15;;;17.77;;
31537;SDS011;18147;51.952;6.146;2022-12-07T00:22:17;32.67;;;16.00;;
31537;SDS011;18147;51.952;6.146;2022-12-07T00:24:42;34.20;;;17.27;;
31537;SDS011;18147;51.952;6.146;2022-12-07T00:27:07;32.65;;;15.70;;
31537;SDS011;18147;51.952;6.146;2022-12-07T00:29:33;30.35;;;15.15;;
31537;SDS011;18147;51.952;6.146;2022-12-07T00:31:58;34.10;;;16.10;;
31537;SDS011;18147;51.952;6.146;2022-12-07T00:34:24;32.08;;;16.05;;
31537;SDS011;18147;51.952;6.146;2022-12-07T00:36:49;30.95;;;15.75;;
31537;SDS011;18147;51.952;6.146;2022-12-07T00:39:15;30.65;;;14.60;;
31537;SDS011;18147;51.952;6.146;2022-12-07T00:41:41;28.70;;;14.52;;
31537;SDS011;18147;51.952;6.146;2022-12-07T00:44:06;29.92;;;14.23;;
31537;SDS011;18147;51.952;6.146;2022-12-07T00:46:32;32.75;;;14.40;;
31537;SDS011;18147;51.952;6.146;2022-12-07T00:48:58;29.00;;;13.70;;
31537;SDS011;18147;51.952;6.146;2022-12-07T00:51:23;33.63;;;14.07;;
31537;SDS011;18147;51.952;6.146;2022-12-07T00:53:50;25.17;;;13.25;;
31537;SDS011;18147;51.952;6.146;2022-12-07T00:58:58;27.52;;;12.77;;
31537;SDS011;18147;51.952;6.146;2022-12-07T01:01:26;29.92;;;12.70;;
31537;SDS011;18147;51.952;6.146;2022-12-07T01:03:54;26.70;;;12.07;;
31537;SDS011;18147;51.952;6.146;2022-12-07T01:06:20;33.42;;;13.02;;
31537;SDS011;18147;51.952;6.146;2022-12-07T01:08:46;29.65;;;14.48;;
31537;SDS011;18147;51.952;6.146;2022-12-07T01:11:13;41.33;;;15.70;;
31537;SDS011;18147;51.952;6.146;2022-12-07T01:13:45;35.58;;;15.23;;
31537;SDS011;18147;51.952;6.146;2022-12-07T01:16:12;41.13;;;16.85;;
31537;SDS011;18147;51.952;6.146;2022-12-07T01:18:39;41.30;;;18.63;;
31537;SDS011;18147;51.952;6.146;2022-12-07T01:21:09;37.17;;;17.80;;
31537;SDS011;18147;51.952;6.146;2022-12-07T01:23:36;40.30;;;16.33;;
31537;SDS011;18147;51.952;6.146;2022-12-07T01:26:05;45.65;;;17.30;;
31537;SDS011;18147;51.952;6.146;2022-12-07T01:28:32;43.97;;;18.02;;
31537;SDS011;18147;51.952;6.146;2022-12-07T01:31:06;39.35;;;17.33;;
31537;SDS011;18147;51.952;6.146;2022-12-07T01:33:36;35.10;;;17.42;;
31537;SDS011;18147;51.952;6.146;2022-12-07T01:36:07;36.55;;;17.55;;
31537;SDS011;18147;51.952;6.146;2022-12-07T01:38:37;37.55;;;18.52;;
31537;SDS011;18147;51.952;6.146;2022-12-07T01:41:02;43.83;;;19.02;;
31537;SDS011;18147;51.952;6.146;2022-12-07T01:43:29;42.05;;;19.90;;
31537;SDS011;18147;51.952;6.146;2022-12-07T01:45:55;38.15;;;18.88;;
31537;SDS011;18147;51.952;6.146;2022-12-07T01:48:29;37.67;;;19.40;;
31537;SDS011;18147;51.952;6.146;2022-12-07T01:51:00;38.40;;;19.63;;
31537;SDS011;18147;51.952;6.146;2022-12-07T01:53:30;38.67;;;19.48;;
31537;SDS011;18147;51.952;6.146;2022-12-07T01:55:57;44.22;;;19.13;;
31537;SDS011;18147;51.952;6.146;2022-12-07T01:58:24;41.97;;;19.05;;
31537;SDS011;18147;51.952;6.146;2022-12-07T02:00:50;40.70;;;19.05;;
31537;SDS011;18147;51.952;6.146;2022-12-07T02:03:19;43.90;;;20.05;;
31537;SDS011;18147;51.952;6.146;2022-12-07T02:05:55;45.20;;;20.52;;
31537;SDS011;18147;51.952;6.146;2022-12-07T02:08:22;50.03;;;21.90;;
31537;SDS011;18147;51.952;6.146;2022-12-07T02:10:47;52.17;;;23.38;;
31537;SDS011;18147;51.952;6.146;2022-12-07T02:13:14;46.47;;;21.55;;
31537;SDS011;18147;51.952;6.146;2022-12-07T02:21:20;46.28;;;21.52;;
31537;SDS011;18147;51.952;6.146;2022-12-07T02:23:53;50.90;;;22.15;;
31537;SDS011;18147;51.952;6.146;2022-12-07T02:29:31;43.20;;;20.35;;
31537;SDS011;18147;51.952;6.146;2022-12-07T02:34:56;48.78;;;22.58;;
31537;SDS011;18147;51.952;6.146;2022-12-07T02:37:34;50.97;;;23.63;;
31537;SDS011;18147;51.952;6.146;2022-12-07T02:40:17;39.47;;;21.83;;
31537;SDS011;18147;51.952;6.146;2022-12-07T02:43:30;50.45;;;22.33;;
31537;SDS011;18147;51.952;6.146;2022-12-07T02:45:50;51.67;;;21.38;;
31537;SDS011;18147;51.952;6.146;2022-12-07T02:48:18;52.75;;;20.83;;
31537;SDS011;18147;51.952;6.146;2022-12-07T02:50:49;55.33;;;23.15;;
31537;SDS011;18147;51.952;6.146;2022-12-07T02:53:37;42.22;;;20.88;;
31537;SDS011;18147;51.952;6.146;2022-12-07T02:56:18;47.13;;;21.38;;
31537;SDS011;18147;51.952;6.146;2022-12-07T02:59:02;38.83;;;21.55;;
31537;SDS011;18147;51.952;6.146;2022-12-07T03:04:45;44.97;;;21.25;;
31537;SDS011;18147;51.952;6.146;2022-12-07T03:15:42;39.22;;;18.48;;
31537;SDS011;18147;51.952;6.146;2022-12-07T03:18:29;48.25;;;20.73;;
31537;SDS011;18147;51.952;6.146;2022-12-07T03:21:01;35.63;;;19.42;;
31537;SDS011;18147;51.952;6.146;2022-12-07T03:23:30;39.63;;;19.67;;
31537;SDS011;18147;51.952;6.146;2022-12-07T03:26:00;53.28;;;22.38;;
31537;SDS011;18147;51.952;6.146;2022-12-07T03:28:31;42.97;;;20.15;;
31537;SDS011;18147;51.952;6.146;2022-12-07T03:31:02;41.90;;;17.52;;
31537;SDS011;18147;51.952;6.146;2022-12-07T03:33:37;39.00;;;17.52;;
31537;SDS011;18147;51.952;6.146;2022-12-07T03:39:15;32.67;;;16.67;;
31537;SDS011;18147;51.952;6.146;2022-12-07T03:41:53;35.25;;;16.50;;
31537;SDS011;18147;51.952;6.146;2022-12-07T03:44:20;30.23;;;16.27;;
31537;SDS011;18147;51.952;6.146;2022-12-07T03:46:50;35.75;;;16.98;;
31537;SDS011;18147;51.952;6.146;2022-12-07T03:49:28;34.67;;;16.27;;
31537;SDS011;18147;51.952;6.146;2022-12-07T03:52:11;35.37;;;16.77;;
31537;SDS011;18147;51.952;6.146;2022-12-07T03:55:11;39.17;;;16.30;;
31537;SDS011;18147;51.952;6.146;2022-12-07T03:57:43;27.38;;;14.98;;
31537;SDS011;18147;51.952;6.146;2022-12-07T04:00:12;32.00;;;15.80;;
31537;SDS011;18147;51.952;6.146;2022-12-07T04:02:38;40.45;;;16.90;;
31537;SDS011;18147;51.952;6.146;2022-12-07T04:05:07;31.38;;;15.43;;
31537;SDS011;18147;51.952;6.146;2022-12-07T04:07:34;28.50;;;15.32;;
31537;SDS011;18147;51.952;6.146;2022-12-07T04:09:59;34.28;;;16.88;;
31537;SDS011;18147;51.952;6.146;2022-12-07T04:12:24;37.53;;;14.55;;
31537;SDS011;18147;51.952;6.146;2022-12-07T04:14:50;29.77;;;14.40;;
31537;SDS011;18147;51.952;6.146;2022-12-07T04:17:15;30.35;;;14.02;;
31537;SDS011;18147;51.952;6.146;2022-12-07T04:19:41;31.35;;;14.15;;
31537;SDS011;18147;51.952;6.146;2022-12-07T04:22:06;31.40;;;14.15;;
31537;SDS011;18147;51.952;6.146;2022-12-07T04:24:32;27.10;;;13.55;;
31537;SDS011;18147;51.952;6.146;2022-12-07T04:26:58;40.85;;;14.60;;
31537;SDS011;18147;51.952;6.146;2022-12-07T04:29:24;27.63;;;13.50;;
31537;SDS011;18147;51.952;6.146;2022-12-07T04:31:49;30.92;;;15.30;;
31537;SDS011;18147;51.952;6.146;2022-12-07T04:34:18;32.33;;;13.50;;
31537;SDS011;18147;51.952;6.146;2022-12-07T04:36:46;32.05;;;13.35;;
31537;SDS011;18147;51.952;6.146;2022-12-07T04:39:26;28.88;;;15.07;;
31537;SDS011;18147;51.952;6.146;2022-12-07T04:41:53;29.63;;;12.60;;
31537;SDS011;18147;51.952;6.146;2022-12-07T04:44:19;31.17;;;14.00;;
31537;SDS011;18147;51.952;6.146;2022-12-07T04:46:46;33.65;;;15.88;;
31537;SDS011;18147;51.952;6.146;2022-12-07T04:49:12;25.63;;;13.18;;
31537;SDS011;18147;51.952;6.146;2022-12-07T04:51:39;31.80;;;13.25;;
31537;SDS011;18147;51.952;6.146;2022-12-07T04:54:05;33.35;;;14.00;;
31537;SDS011;18147;51.952;6.146;2022-12-07T04:56:30;31.73;;;14.00;;
31537;SDS011;18147;51.952;6.146;2022-12-07T04:58:56;31.77;;;13.77;;
31537;SDS011;18147;51.952;6.146;2022-12-07T05:01:22;24.98;;;12.93;;
31537;SDS011;18147;51.952;6.146;2022-12-07T05:03:48;33.15;;;13.27;;
31537;SDS011;18147;51.952;6.146;2022-12-07T05:06:14;32.03;;;12.85;;
31537;SDS011;18147;51.952;6.146;2022-12-07T05:08:40;28.55;;;12.02;;
31537;SDS011;18147;51.952;6.146;2022-12-07T05:11:07;28.40;;;12.00;;
31537;SDS011;18147;51.952;6.146;2022-12-07T05:13:34;25.23;;;11.18;;
31537;SDS011;18147;51.952;6.146;2022-12-07T05:16:00;25.40;;;11.25;;
31537;SDS011;18147;51.952;6.146;2022-12-07T05:18:26;24.30;;;11.93;;
31537;SDS011;18147;51.952;6.146;2022-12-07T05:20:51;31.50;;;12.00;;
31537;SDS011;18147;51.952;6.146;2022-12-07T05:23:17;21.45;;;10.68;;
31537;SDS011;18147;51.952;6.146;2022-12-07T05:25:43;26.95;;;10.88;;
31537;SDS011;18147;51.952;6.146;2022-12-07T05:28:08;21.20;;;10.15;;
31537;SDS011;18147;51.952;6.146;2022-12-07T05:30:34;33.05;;;10.68;;
31537;SDS011;18147;51.952;6.146;2022-12-07T05:32:59;36.60;;;11.82;;
31537;SDS011;18147;51.952;6.146;2022-12-07T05:35:25;28.65;;;11.18;;
31537;SDS011;18147;51.952;6.146;2022-12-07T05:37:51;23.25;;;11.93;;
31537;SDS011;18147;51.952;6.146;2022-12-07T05:40:16;22.13;;;11.45;;
31537;SDS011;18147;51.952;6.146;2022-12-07T05:42:42;18.75;;;10.80;;
31537;SDS011;18147;51.952;6.146;2022-12-07T05:45:08;27.75;;;12.13;;
31537;SDS011;18147;51.952;6.146;2022-12-07T05:47:34;32.08;;;13.85;;
31537;SDS011;18147;51.952;6.146;2022-12-07T05:49:59;22.30;;;11.35;;
31537;SDS011;18147;51.952;6.146;2022-12-07T05:52:25;34.15;;;13.15;;
31537;SDS011;18147;51.952;6.146;2022-12-07T05:54:51;31.13;;;12.18;;
31537;SDS011;18147;51.952;6.146;2022-12-07T05:57:17;23.25;;;11.48;;
31537;SDS011;18147;51.952;6.146;2022-12-07T05:59:42;27.58;;;12.20;;
31537;SDS011;18147;51.952;6.146;2022-12-07T06:02:10;28.75;;;12.35;;
31537;SDS011;18147;51.952;6.146;2022-12-07T06:04:38;33.60;;;13.68;;
31537;SDS011;18147;51.952;6.146;2022-12-07T06:07:05;23.85;;;11.95;;
31537;SDS011;18147;51.952;6.146;2022-12-07T06:09:31;29.08;;;11.65;;
31537;SDS011;18147;51.952;6.146;2022-12-07T06:11:58;27.73;;;11.25;;
31537;SDS011;18147;51.952;6.146;2022-12-07T06:14:43;24.25;;;10.25;;
31537;SDS011;18147;51.952;6.146;2022-12-07T06:17:09;26.15;;;12.23;;
31537;SDS011;18147;51.952;6.146;2022-12-07T06:19:34;27.02;;;11.50;;
31537;SDS011;18147;51.952;6.146;2022-12-07T06:22:00;23.00;;;10.65;;
31537;SDS011;18147;51.952;6.146;2022-12-07T06:24:27;28.33;;;11.50;;
31537;SDS011;18147;51.952;6.146;2022-12-07T06:26:53;29.25;;;10.88;;
31537;SDS011;18147;51.952;6.146;2022-12-07T06:29:18;26.70;;;10.68;;
31537;SDS011;18147;51.952;6.146;2022-12-07T06:31:44;28.20;;;10.13;;
31537;SDS011;18147;51.952;6.146;2022-12-07T06:34:11;31.42;;;10.73;;
31537;SDS011;18147;51.952;6.146;2022-12-07T06:36:39;23.83;;;10.45;;
31537;SDS011;18147;51.952;6.146;2022-12-07T06:39:05;26.75;;;11.80;;
31537;SDS011;18147;51.952;6.146;2022-12-07T06:41:31;20.13;;;10.07;;
31537;SDS011;18147;51.952;6.146;2022-12-07T06:43:57;18.88;;;9.65;;
31537;SDS011;18147;51.952;6.146;2022-12-07T06:46:22;25.65;;;10.55;;
31537;SDS011;18147;51.952;6.146;2022-12-07T06:48:48;21.90;;;10.55;;
31537;SDS011;18147;51.952;6.146;2022-12-07T06:51:14;18.95;;;10.20;;
31537;SDS011;18147;51.952;6.146;2022-12-07T06:53:39;22.98;;;10.75;;
31537;SDS011;18147;51.952;6.146;2022-12-07T06:56:05;21.80;;;11.02;;
31537;SDS011;18147;51.952;6.146;2022-12-07T06:58:30;16.77;;;10.30;;
31537;SDS011;18147;51.952;6.146;2022-12-07T07:00:56;27.25;;;11.02;;
31537;SDS011;18147;51.952;6.146;2022-12-07T07:03:22;23.17;;;12.07;;
31537;SDS011;18147;51.952;6.146;2022-12-07T07:05:48;31.05;;;11.93;;
31537;SDS011;18147;51.952;6.146;2022-12-07T07:08:13;21.55;;;10.35;;
31537;SDS011;18147;51.952;6.146;2022-12-07T07:10:39;23.30;;;11.20;;
31537;SDS011;18147;51.952;6.146;2022-12-07T07:13:05;26.95;;;11.05;;
31537;SDS011;18147;51.952;6.146;2022-12-07T07:15:31;23.30;;;11.52;;
31537;SDS011;18147;51.952;6.146;2022-12-07T07:17:57;28.45;;;12.05;;
31537;SDS011;18147;51.952;6.146;2022-12-07T07:20:23;28.55;;;11.05;;
31537;SDS011;18147;51.952;6.146;2022-12-07T07:22:48;22.38;;;10.75;;
31537;SDS011;18147;51.952;6.146;2022-12-07T07:25:14;25.92;;;11.65;;
31537;SDS011;18147;51.952;6.146;2022-12-07T07:27:40;24.02;;;9.70;;
31537;SDS011;18147;51.952;6.146;2022-12-07T07:30:06;18.50;;;10.07;;
31537;SDS011;18147;51.952;6.146;2022-12-07T07:32:32;23.35;;;9.55;;
31537;SDS011;18147;51.952;6.146;2022-12-07T07:34:57;23.50;;;9.63;;
31537;SDS011;18147;51.952;6.146;2022-12-07T07:37:25;17.85;;;9.30;;
31537;SDS011;18147;51.952;6.146;2022-12-07T07:39:51;22.23;;;9.00;;
31537;SDS011;18147;51.952;6.146;2022-12-07T07:42:16;21.35;;;9.20;;
31537;SDS011;18147;51.952;6.146;2022-12-07T07:44:42;22.00;;;9.30;;
31537;SDS011;18147;51.952;6.146;2022-12-07T07:47:11;23.90;;;8.57;;
31537;SDS011;18147;51.952;6.146;2022-12-07T07:49:36;27.30;;;9.30;;
31537;SDS011;18147;51.952;6.146;2022-12-07T07:52:02;33.47;;;9.50;;
31537;SDS011;18147;51.952;6.146;2022-12-07T07:54:28;17.80;;;8.60;;
31537;SDS011;18147;51.952;6.146;2022-12-07T07:56:53;22.98;;;9.20;;
31537;SDS011;18147;51.952;6.146;2022-12-07T07:59:19;22.65;;;8.98;;
31537;SDS011;18147;51.952;6.146;2022-12-07T08:01:44;23.40;;;8.38;;
31537;SDS011;18147;51.952;6.146;2022-12-07T08:04:10;18.70;;;8.00;;
31537;SDS011;18147;51.952;6.146;2022-12-07T08:06:35;25.08;;;8.30;;
31537;SDS011;18147;51.952;6.146;2022-12-07T08:09:01;14.70;;;7.03;;
31537;SDS011;18147;51.952;6.146;2022-12-07T08:11:27;16.90;;;8.63;;
31537;SDS011;18147;51.952;6.146;2022-12-07T08:13:53;13.60;;;7.25;;
31537;SDS011;18147;51.952;6.146;2022-12-07T08:16:19;17.25;;;6.80;;
31537;SDS011;18147;51.952;6.146;2022-12-07T08:18:44;21.80;;;7.35;;
31537;SDS011;18147;51.952;6.146;2022-12-07T08:21:13;17.67;;;7.07;;
31537;SDS011;18147;51.952;6.146;2022-12-07T08:23:40;18.77;;;6.90;;
31537;SDS011;18147;51.952;6.146;2022-12-07T08:26:09;16.40;;;6.68;;
31537;SDS011;18147;51.952;6.146;2022-12-07T08:28:42;21.88;;;6.90;;
31537;SDS011;18147;51.952;6.146;2022-12-07T08:31:10;21.85;;;6.43;;
31537;SDS011;18147;51.952;6.146;2022-12-07T08:33:38;26.52;;;7.75;;
31537;SDS011;18147;51.952;6.146;2022-12-07T08:36:06;18.10;;;6.88;;
31537;SDS011;18147;51.952;6.146;2022-12-07T08:38:36;16.13;;;7.35;;
31537;SDS011;18147;51.952;6.146;2022-12-07T08:41:03;19.05;;;7.22;;
31537;SDS011;18147;51.952;6.146;2022-12-07T08:43:29;15.10;;;6.68;;
31537;SDS011;18147;51.952;6.146;2022-12-07T08:46:03;17.40;;;7.05;;
31537;SDS011;18147;51.952;6.146;2022-12-07T08:48:30;14.80;;;6.47;;
31537;SDS011;18147;51.952;6.146;2022-12-07T08:51:01;11.18;;;6.35;;
31537;SDS011;18147;51.952;6.146;2022-12-07T08:53:27;11.80;;;6.40;;
31537;SDS011;18147;51.952;6.146;2022-12-07T08:55:53;12.85;;;6.30;;
31537;SDS011;18147;51.952;6.146;2022-12-07T08:58:19;13.80;;;5.90;;
31537;SDS011;18147;51.952;6.146;2022-12-07T09:00:44;13.00;;;5.45;;
31537;SDS011;18147;51.952;6.146;2022-12-07T09:03:09;16.65;;;5.75;;
31537;SDS011;18147;51.952;6.146;2022-12-07T09:05:35;12.55;;;5.43;;
31537;SDS011;18147;51.952;6.146;2022-12-07T09:08:01;19.48;;;5.93;;
31537;SDS011;18147;51.952;6.146;2022-12-07T09:10:27;19.90;;;6.05;;
31537;SDS011;18147;51.952;6.146;2022-12-07T09:12:55;16.88;;;6.32;;
31537;SDS011;18147;51.952;6.146;2022-12-07T09:15:25;21.08;;;5.60;;
31537;SDS011;18147;51.952;6.146;2022-12-07T09:17:54;15.90;;;5.70;;
31537;SDS011;18147;51.952;6.146;2022-12-07T09:20:20;16.73;;;6.63;;
31537;SDS011;18147;51.952;6.146;2022-12-07T09:22:46;19.42;;;6.50;;
31537;SDS011;18147;51.952;6.146;2022-12-07T09:25:12;11.35;;;6.85;;
31537;SDS011;18147;51.952;6.146;2022-12-07T09:27:37;16.23;;;5.82;;
31537;SDS011;18147;51.952;6.146;2022-12-07T09:30:03;15.63;;;5.15;;
31537;SDS011;18147;51.952;6.146;2022-12-07T09:32:30;10.57;;;5.25;;
31537;SDS011;18147;51.952;6.146;2022-12-07T09:34:55;13.63;;;5.45;;
31537;SDS011;18147;51.952;6.146;2022-12-07T09:37:21;11.45;;;5.20;;
31537;SDS011;18147;51.952;6.146;2022-12-07T09:39:46;21.27;;;5.97;;
31537;SDS011;18147;51.952;6.146;2022-12-07T09:42:18;14.48;;;4.75;;
31537;SDS011;18147;51.952;6.146;2022-12-07T09:44:50;17.05;;;5.03;;
31537;SDS011;18147;51.952;6.146;2022-12-07T09:47:15;14.43;;;5.63;;
31537;SDS011;18147;51.952;6.146;2022-12-07T09:49:41;10.25;;;4.63;;
31537;SDS011;18147;51.952;6.146;2022-12-07T09:54:40;16.45;;;4.43;;
31537;SDS011;18147;51.952;6.146;2022-12-07T09:57:08;11.77;;;5.70;;
31537;SDS011;18147;51.952;6.146;2022-12-07T09:59:37;10.05;;;3.97;;
31537;SDS011;18147;51.952;6.146;2022-12-07T10:02:23;13.65;;;4.13;;
31537;SDS011;18147;51.952;6.146;2022-12-07T10:04:59;9.27;;;3.58;;
31537;SDS011;18147;51.952;6.146;2022-12-07T10:07:25;11.45;;;3.67;;
31537;SDS011;18147;51.952;6.146;2022-12-07T10:09:50;12.90;;;4.43;;
31537;SDS011;18147;51.952;6.146;2022-12-07T10:12:16;13.57;;;4.20;;
31537;SDS011;18147;51.952;6.146;2022-12-07T10:15:00;9.60;;;3.50;;
31537;SDS011;18147;51.952;6.146;2022-12-07T10:17:30;8.75;;;3.53;;
31537;SDS011;18147;51.952;6.146;2022-12-07T10:25:29;16.45;;;4.25;;
31537;SDS011;18147;51.952;6.146;2022-12-07T10:28:00;8.27;;;3.20;;
31537;SDS011;18147;51.952;6.146;2022-12-07T10:30:27;15.40;;;5.03;;
31537;SDS011;18147;51.952;6.146;2022-12-07T10:32:53;9.38;;;3.38;;
31537;SDS011;18147;51.952;6.146;2022-12-07T10:37:47;13.38;;;4.53;;
31537;SDS011;18147;51.952;6.146;2022-12-07T10:40:27;10.63;;;3.92;;
31537;SDS011;18147;51.952;6.146;2022-12-07T10:45:31;10.48;;;3.72;;
31537;SDS011;18147;51.952;6.146;2022-12-07T10:48:08;13.90;;;3.63;;
31537;SDS011;18147;51.952;6.146;2022-12-07T10:59:04;17.30;;;3.60;;
31537;SDS011;18147;51.952;6.146;2022-12-07T11:04:35;16.42;;;4.43;;
31537;SDS011;18147;51.952;6.146;2022-12-07T11:09:58;11.48;;;3.50;;
31537;SDS011;18147;51.952;6.146;2022-12-07T11:15:09;9.30;;;3.45;;
31537;SDS011;18147;51.952;6.146;2022-12-07T11:20:37;12.90;;;4.03;;
31537;SDS011;18147;51.952;6.146;2022-12-07T11:26:07;7.30;;;3.58;;
31537;SDS011;18147;51.952;6.146;2022-12-07T11:31:29;17.40;;;4.18;;
31537;SDS011;18147;51.952;6.146;2022-12-07T11:36:50;17.38;;;5.50;;
31537;SDS011;18147;51.952;6.146;2022-12-07T11:39:30;5.30;;;2.67;;
31537;SDS011;18147;51.952;6.146;2022-12-07T11:42:13;10.73;;;2.67;;
31537;SDS011;18147;51.952;6.146;2022-12-07T11:44:48;13.23;;;4.47;;
31537;SDS011;18147;51.952;6.146;2022-12-07T11:47:23;9.68;;;3.45;;
31537;SDS011;18147;51.952;6.146;2022-12-07T11:50:03;11.27;;;2.85;;
31537;SDS011;18147;51.952;6.146;2022-12-07T11:52:39;9.02;;;2.60;;
31537;SDS011;18147;51.952;6.146;2022-12-07T11:55:21;9.40;;;2.70;;
31537;SDS011;18147;51.952;6.146;2022-12-07T11:57:52;13.85;;;3.00;;
31537;SDS011;18147;51.952;6.146;2022-12-07T12:00:23;9.15;;;3.15;;
31537;SDS011;18147;51.952;6.146;2022-12-07T12:02:59;8.20;;;3.30;;
31537;SDS011;18147;51.952;6.146;2022-12-07T12:05:30;14.55;;;2.60;;
31537;SDS011;18147;51.952;6.146;2022-12-07T12:08:02;8.80;;;2.70;;
31537;SDS011;18147;51.952;6.146;2022-12-07T12:16:13;10.25;;;2.17;;
31537;SDS011;18147;51.952;6.146;2022-12-07T12:21:29;9.23;;;2.92;;
31537;SDS011;18147;51.952;6.146;2022-12-07T12:24:05;10.93;;;2.72;;
31537;SDS011;18147;51.952;6.146;2022-12-07T12:26:37;7.47;;;2.33;;
31537;SDS011;18147;51.952;6.146;2022-12-07T12:29:07;10.95;;;2.80;;
31537;SDS011;18147;51.952;6.146;2022-12-07T12:31:48;8.80;;;2.45;;
31537;SDS011;18147;51.952;6.146;2022-12-07T12:34:38;16.60;;;2.72;;
31537;SDS011;18147;51.952;6.146;2022-12-07T12:37:40;7.45;;;2.53;;
31537;SDS011;18147;51.952;6.146;2022-12-07T12:42:56;8.57;;;2.42;;
31537;SDS011;18147;51.952;6.146;2022-12-07T12:45:29;7.60;;;2.13;;
31537;SDS011;18147;51.952;6.146;2022-12-07T12:47:59;8.95;;;2.67;;
31537;SDS011;18147;51.952;6.146;2022-12-07T12:52:53;11.25;;;2.88;;
31537;SDS011;18147;51.952;6.146;2022-12-07T12:55:26;6.18;;;2.13;;
31537;SDS011;18147;51.952;6.146;2022-12-07T13:00:44;7.40;;;2.00;;
31537;SDS011;18147;51.952;6.146;2022-12-07T13:03:27;6.45;;;2.00;;
31537;SDS011;18147;51.952;6.146;2022-12-07T13:08:43;16.92;;;2.85;;
31537;SDS011;18147;51.952;6.146;2022-12-07T13:11:16;14.35;;;2.33;;
31537;SDS011;18147;51.952;6.146;2022-12-07T13:13:50;11.48;;;2.45;;
31537;SDS011;18147;51.952;6.146;2022-12-07T13:18:41;6.05;;;2.13;;
31537;SDS011;18147;51.952;6.146;2022-12-07T13:26:20;16.77;;;2.85;;
31537;SDS011;18147;51.952;6.146;2022-12-07T13:29:05;7.75;;;2.00;;
31537;SDS011;18147;51.952;6.146;2022-12-07T13:34:03;7.80;;;2.30;;
31537;SDS011;18147;51.952;6.146;2022-12-07T13:36:32;7.65;;;2.15;;
31537;SDS011;18147;51.952;6.146;2022-12-07T13:41:44;10.93;;;2.27;;
31537;SDS011;18147;51.952;6.146;2022-12-07T13:44:18;12.02;;;3.78;;
31537;SDS011;18147;51.952;6.146;2022-12-07T13:46:56;12.73;;;4.35;;
31537;SDS011;18147;51.952;6.146;2022-12-07T13:49:24;13.52;;;4.72;;
31537;SDS011;18147;51.952;6.146;2022-12-07T13:51:51;21.80;;;6.60;;
31537;SDS011;18147;51.952;6.146;2022-12-07T13:54:18;14.25;;;4.63;;
31537;SDS011;18147;51.952;6.146;2022-12-07T13:56:47;11.88;;;4.30;;
31537;SDS011;18147;51.952;6.146;2022-12-07T13:59:19;11.77;;;3.38;;
31537;SDS011;18147;51.952;6.146;2022-12-07T14:01:48;21.50;;;6.05;;
31537;SDS011;18147;51.952;6.146;2022-12-07T14:06:55;11.15;;;3.15;;
31537;SDS011;18147;51.952;6.146;2022-12-07T14:09:22;11.35;;;3.10;;
31537;SDS011;18147;51.952;6.146;2022-12-07T14:11:49;7.65;;;2.65;;
31537;SDS011;18147;51.952;6.146;2022-12-07T14:14:17;9.40;;;2.47;;
31537;SDS011;18147;51.952;6.146;2022-12-07T14:16:55;11.32;;;2.45;;
31537;SDS011;18147;51.952;6.146;2022-12-07T14:19:40;9.02;;;2.85;;
31537;SDS011;18147;51.952;6.146;2022-12-07T14:22:22;9.95;;;2.78;;
31537;SDS011;18147;51.952;6.146;2022-12-07T14:24:57;5.88;;;1.98;;
31537;SDS011;18147;51.952;6.146;2022-12-07T14:27:24;9.27;;;1.92;;
31537;SDS011;18147;51.952;6.146;2022-12-07T14:29:55;8.93;;;1.50;;
31537;SDS011;18147;51.952;6.146;2022-12-07T14:32:23;6.65;;;1.88;;
31537;SDS011;18147;51.952;6.146;2022-12-07T14:35:13;8.20;;;1.30;;
31537;SDS011;18147;51.952;6.146;2022-12-07T14:37:41;4.55;;;1.50;;
31537;SDS011;18147;51.952;6.146;2022-12-07T14:40:12;11.55;;;2.17;;
31537;SDS011;18147;51.952;6.146;2022-12-07T14:42:42;5.32;;;1.60;;
31537;SDS011;18147;51.952;6.146;2022-12-07T14:45:15;10.48;;;1.88;;
31537;SDS011;18147;51.952;6.146;2022-12-07T14:47:42;7.32;;;1.80;;
31537;SDS011;18147;51.952;6.146;2022-12-07T14:50:12;6.47;;;2.08;;
31537;SDS011;18147;51.952;6.146;2022-12-07T14:52:38;6.20;;;2.22;;
31537;SDS011;18147;51.952;6.146;2022-12-07T14:55:04;6.72;;;2.75;;
31537;SDS011;18147;51.952;6.146;2022-12-07T14:57:37;6.68;;;2.92;;
31537;SDS011;18147;51.952;6.146;2022-12-07T15:00:03;8.05;;;2.88;;
31537;SDS011;18147;51.952;6.146;2022-12-07T15:02:29;10.52;;;2.67;;
31537;SDS011;18147;51.952;6.146;2022-12-07T15:04:54;7.32;;;2.63;;
31537;SDS011;18147;51.952;6.146;2022-12-07T15:07:20;7.57;;;2.38;;
31537;SDS011;18147;51.952;6.146;2022-12-07T15:09:46;14.85;;;2.45;;
31537;SDS011;18147;51.952;6.146;2022-12-07T15:12:12;6.95;;;2.65;;
31537;SDS011;18147;51.952;6.146;2022-12-07T15:14:37;6.57;;;2.42;;
31537;SDS011;18147;51.952;6.146;2022-12-07T15:17:03;7.55;;;2.38;;
31537;SDS011;18147;51.952;6.146;2022-12-07T15:19:28;6.97;;;3.05;;
31537;SDS011;18147;51.952;6.146;2022-12-07T15:21:57;9.65;;;2.92;;
31537;SDS011;18147;51.952;6.146;2022-12-07T15:24:24;6.72;;;2.97;;
31537;SDS011;18147;51.952;6.146;2022-12-07T15:26:51;7.10;;;2.35;;
31537;SDS011;18147;51.952;6.146;2022-12-07T15:29:17;14.30;;;3.10;;
31537;SDS011;18147;51.952;6.146;2022-12-07T15:31:42;6.72;;;2.80;;
31537;SDS011;18147;51.952;6.146;2022-12-07T15:34:08;15.40;;;2.53;;
31537;SDS011;18147;51.952;6.146;2022-12-07T15:36:34;4.93;;;2.08;;
31537;SDS011;18147;51.952;6.146;2022-12-07T15:39:00;7.68;;;2.45;;
31537;SDS011;18147;51.952;6.146;2022-12-07T15:41:25;12.90;;;3.00;;
31537;SDS011;18147;51.952;6.146;2022-12-07T15:43:51;4.60;;;2.70;;
31537;SDS011;18147;51.952;6.146;2022-12-07T15:46:36;11.27;;;3.78;;
31537;SDS011;18147;51.952;6.146;2022-12-07T15:49:04;6.72;;;2.75;;
31537;SDS011;18147;51.952;6.146;2022-12-07T15:51:34;6.18;;;3.80;;
31537;SDS011;18147;51.952;6.146;2022-12-07T15:54:00;16.00;;;3.25;;
31537;SDS011;18147;51.952;6.146;2022-12-07T15:56:25;13.52;;;3.72;;
31537;SDS011;18147;51.952;6.146;2022-12-07T15:58:51;12.38;;;3.90;;
31537;SDS011;18147;51.952;6.146;2022-12-07T16:01:17;14.15;;;5.03;;
31537;SDS011;18147;51.952;6.146;2022-12-07T16:03:44;11.98;;;5.20;;
31537;SDS011;18147;51.952;6.146;2022-12-07T16:06:11;14.38;;;5.55;;
31537;SDS011;18147;51.952;6.146;2022-12-07T16:08:37;17.65;;;6.07;;
31537;SDS011;18147;51.952;6.146;2022-12-07T16:11:07;16.40;;;6.93;;
31537;SDS011;18147;51.952;6.146;2022-12-07T16:13:33;19.73;;;6.80;;
31537;SDS011;18147;51.952;6.146;2022-12-07T16:16:02;10.20;;;6.10;;
31537;SDS011;18147;51.952;6.146;2022-12-07T16:18:32;8.20;;;5.15;;
31537;SDS011;18147;51.952;6.146;2022-12-07T16:20:58;16.75;;;5.68;;
31537;SDS011;18147;51.952;6.146;2022-12-07T16:23:23;15.57;;;6.00;;
31537;SDS011;18147;51.952;6.146;2022-12-07T16:25:49;9.13;;;5.50;;